Time;durP1;ratioP1;P1;durP2;ratioP2;P2;SDS_P1;SDS_P2;PMS_P1;PMS_P2;Temp;Humidity;BMP_temperature;BMP_pressure;BME280_temperature;BME280_humidity;BME280_pressure;Samples;Min_cycle;Max_cycle;Signal;HPM_P1;HPM_P2
2023/11/25 00:01:28;;;;;;;23.42;13.60;;;;;;;;;;5113214;28;20416;-69
2023/11/25 00:04:13;;;;;;;21.45;13.85;;;;;;;;;;5113666;28;20019;-69
2023/11/25 00:06:59;;;;;;;20.42;13.63;;;;;;;;;;5114654;28;20102;-69
2023/11/25 00:09:44;;;;;;;21.25;14.02;;;;;;;;;;5113644;28;20020;-69
2023/11/25 00:12:30;;;;;;;22.52;14.45;;;;;;;;;;5113506;28;20023;-69
2023/11/25 00:15:16;;;;;;;21.17;14.00;;;;;;;;;;5113806;28;20056;-69
2023/11/25 00:18:03;;;;;;;20.23;13.60;;;;;;;;;;5113864;28;20024;-69
2023/11/25 00:20:48;;;;;;;21.23;12.77;;;;;;;;;;5113234;28;20099;-69
2023/11/25 00:23:34;;;;;;;20.00;12.13;;;;;;;;;;5098464;28;20012;-69
2023/11/25 00:26:19;;;;;;;19.42;12.05;;;;;;;;;;5113831;28;20100;-70
2023/11/25 00:29:05;;;;;;;19.10;12.25;;;;;;;;;;5113244;28;20015;-69
2023/11/25 00:31:54;;;;;;;20.90;12.75;;;;;;;;;;5113088;28;20436;-69
2023/11/25 00:34:40;;;;;;;17.77;11.23;;;;;;;;;;5114214;28;20467;-68
2023/11/25 00:37:25;;;;;;;20.02;11.35;;;;;;;;;;5113594;28;20066;-69
2023/11/25 00:40:11;;;;;;;22.45;13.02;;;;;;;;;;5114274;28;20072;-68
2023/11/25 00:42:56;;;;;;;20.42;12.63;;;;;;;;;;5112886;28;20498;-68
2023/11/25 00:45:42;;;;;;;25.30;14.10;;;;;;;;;;5116951;28;20020;-69
2023/11/25 00:48:28;;;;;;;22.40;12.82;;;;;;;;;;5117049;28;20081;-69
2023/11/25 00:51:14;;;;;;;20.05;12.15;;;;;;;;;;5129057;27;20070;-69
2023/11/25 00:54:00;;;;;;;24.70;12.73;;;;;;;;;;5138063;27;20079;-70
2023/11/25 00:56:45;;;;;;;21.63;12.52;;;;;;;;;;5137754;27;20474;-69
2023/11/25 00:59:31;;;;;;;26.35;13.60;;;;;;;;;;5136986;27;20518;-68
2023/11/25 01:02:16;;;;;;;24.77;14.85;;;;;;;;;;5138258;27;20099;-69
2023/11/25 01:05:04;;;;;;;24.15;14.43;;;;;;;;;;5136990;27;20023;-68
2023/11/25 01:07:50;;;;;;;22.75;13.80;;;;;;;;;;5122358;27;20355;-68
2023/11/25 01:10:36;;;;;;;21.90;13.60;;;;;;;;;;5122411;27;20019;-68
2023/11/25 01:13:21;;;;;;;24.10;13.43;;;;;;;;;;5137655;27;20328;-68
2023/11/25 01:16:15;;;;;;;21.98;13.50;;;;;;;;;;5137467;27;20132;-68
2023/11/25 01:19:01;;;;;;;23.20;14.10;;;;;;;;;;5122543;27;20015;-69
2023/11/25 01:21:46;;;;;;;23.80;13.88;;;;;;;;;;5136633;27;20019;-68
2023/11/25 01:24:32;;;;;;;25.65;14.27;;;;;;;;;;5137129;27;20007;-68
2023/11/25 01:27:18;;;;;;;24.85;13.20;;;;;;;;;;5136547;27;20063;-69
2023/11/25 01:30:06;;;;;;;21.52;13.38;;;;;;;;;;5136861;27;20084;-69
2023/11/25 01:32:52;;;;;;;23.25;13.45;;;;;;;;;;5137185;27;20027;-69
2023/11/25 01:35:38;;;;;;;22.70;13.57;;;;;;;;;;5122512;27;20527;-69
2023/11/25 01:38:23;;;;;;;20.38;13.20;;;;;;;;;;5121940;27;20039;-69
2023/11/25 01:41:09;;;;;;;23.60;12.98;;;;;;;;;;5135974;27;20102;-69
2023/11/25 01:43:55;;;;;;;20.48;11.63;;;;;;;;;;5121945;27;20102;-69
2023/11/25 01:46:42;;;;;;;19.45;11.57;;;;;;;;;;5135925;27;20094;-69
2023/11/25 01:49:28;;;;;;;17.30;10.60;;;;;;;;;;5121114;27;20305;-69
2023/11/25 01:52:13;;;;;;;26.30;14.50;;;;;;;;;;5136169;27;20109;-69
2023/11/25 01:55:01;;;;;;;26.88;14.70;;;;;;;;;;5135506;27;20023;-68
2023/11/25 01:57:46;;;;;;;29.67;16.23;;;;;;;;;;5121621;27;20031;-69
2023/11/25 02:00:34;;;;;;;22.23;12.52;;;;;;;;;;5137164;27;20023;-69
2023/11/25 02:03:20;;;;;;;19.65;11.77;;;;;;;;;;5137339;27;20457;-69
2023/11/25 02:06:06;;;;;;;19.92;11.45;;;;;;;;;;5135971;27;20019;-69
2023/11/25 02:08:51;;;;;;;15.52;9.38;;;;;;;;;;5135822;27;20121;-68
2023/11/25 02:12:01;;;;;;;16.30;9.23;;;;;;;;;;5135730;27;20474;-69
2023/11/25 02:14:47;;;;;;;14.70;8.68;;;;;;;;;;5121626;27;20076;-69
2023/11/25 02:17:33;;;;;;;14.57;8.07;;;;;;;;;;5136823;27;20027;-69
2023/11/25 02:20:29;;;;;;;12.57;7.13;;;;;;;;;;5135044;27;20524;-69
2023/11/25 02:23:16;;;;;;;13.65;8.27;;;;;;;;;;5134570;27;20363;-69
2023/11/25 02:26:02;;;;;;;12.25;8.02;;;;;;;;;;5134256;27;20106;-69
2023/11/25 02:28:48;;;;;;;11.32;6.93;;;;;;;;;;5135608;27;20026;-69
2023/11/25 02:31:34;;;;;;;10.80;7.07;;;;;;;;;;5121393;27;20030;-68
2023/11/25 02:34:20;;;;;;;11.13;7.07;;;;;;;;;;5119795;27;20411;-68
2023/11/25 02:37:06;;;;;;;11.27;7.30;;;;;;;;;;5136080;27;20061;-68
2023/11/25 02:39:52;;;;;;;15.27;7.55;;;;;;;;;;5121493;27;20086;-68
2023/11/25 02:42:38;;;;;;;12.55;7.30;;;;;;;;;;5135257;27;20015;-69
2023/11/25 02:45:24;;;;;;;12.40;6.85;;;;;;;;;;5120273;27;20023;-69
2023/11/25 02:48:09;;;;;;;13.30;7.30;;;;;;;;;;5136743;27;20008;-69
2023/11/25 02:50:55;;;;;;;13.43;7.03;;;;;;;;;;5119866;27;20471;-69
2023/11/25 02:53:41;;;;;;;9.77;6.35;;;;;;;;;;5120175;27;20027;-68
2023/11/25 02:56:26;;;;;;;13.02;8.02;;;;;;;;;;5121813;27;20349;-69
2023/11/25 02:59:12;;;;;;;11.57;7.60;;;;;;;;;;5136200;27;20118;-69
2023/11/25 03:02:06;;;;;;;14.52;7.55;;;;;;;;;;5119522;27;20115;-69
2023/11/25 03:04:54;;;;;;;12.50;7.60;;;;;;;;;;5135912;27;20011;-70
2023/11/25 03:07:41;;;;;;;11.80;7.30;;;;;;;;;;5134533;27;20065;-70
2023/11/25 03:10:26;;;;;;;11.60;6.82;;;;;;;;;;5120206;27;20461;-70
2023/11/25 03:13:12;;;;;;;11.00;7.15;;;;;;;;;;5134591;27;20101;-68
2023/11/25 03:15:58;;;;;;;12.77;7.47;;;;;;;;;;5120523;27;20015;-68
2023/11/25 03:18:43;;;;;;;11.05;7.50;;;;;;;;;;5134321;27;20321;-68
2023/11/25 03:21:29;;;;;;;13.38;7.57;;;;;;;;;;5119808;27;20025;-68
2023/11/25 03:24:16;;;;;;;14.23;7.65;;;;;;;;;;5135436;27;20015;-68
2023/11/25 03:27:02;;;;;;;15.10;9.00;;;;;;;;;;5133376;27;20049;-69
2023/11/25 03:29:47;;;;;;;13.40;8.55;;;;;;;;;;5119765;27;20504;-69
2023/11/25 03:32:34;;;;;;;14.70;8.73;;;;;;;;;;5120447;28;20401;-68
2023/11/25 03:35:21;;;;;;;13.98;8.70;;;;;;;;;;5133802;27;20023;-73
2023/11/25 03:38:06;;;;;;;13.57;8.52;;;;;;;;;;5119778;27;20023;-73
2023/11/25 03:40:52;;;;;;;13.75;8.00;;;;;;;;;;5119884;27;20454;-72
2023/11/25 03:43:38;;;;;;;13.77;8.65;;;;;;;;;;5133725;28;20391;-72
2023/11/25 03:46:24;;;;;;;13.27;8.02;;;;;;;;;;5135299;28;20098;-75
2023/11/25 03:49:10;;;;;;;12.23;6.95;;;;;;;;;;5134821;28;20317;-73
2023/11/25 03:51:55;;;;;;;9.38;6.32;;;;;;;;;;5133400;28;20047;-73
2023/11/25 03:54:41;;;;;;;9.82;6.50;;;;;;;;;;5134237;28;20031;-73
2023/11/25 03:57:26;;;;;;;9.85;6.85;;;;;;;;;;5134168;28;20023;-74
2023/11/25 04:00:15;;;;;;;9.90;6.97;;;;;;;;;;5134337;28;20106;-73
2023/11/25 04:03:01;;;;;;;9.75;6.75;;;;;;;;;;5119195;28;20035;-73
2023/11/25 04:05:47;;;;;;;10.10;6.78;;;;;;;;;;5134400;28;20026;-74
2023/11/25 04:08:32;;;;;;;10.32;6.88;;;;;;;;;;5119677;28;20015;-74
2023/11/25 04:11:18;;;;;;;11.00;7.45;;;;;;;;;;5133044;28;20019;-74
2023/11/25 04:14:04;;;;;;;9.95;6.65;;;;;;;;;;5135054;28;20041;-74
2023/11/25 04:16:50;;;;;;;11.73;7.75;;;;;;;;;;5132720;28;20022;-75
2023/11/25 04:19:36;;;;;;;12.30;7.43;;;;;;;;;;5135719;27;20537;-75
2023/11/25 04:22:21;;;;;;;11.02;7.50;;;;;;;;;;5123980;27;20023;-75
2023/11/25 04:25:08;;;;;;;10.27;7.15;;;;;;;;;;5137769;27;20083;-75
2023/11/25 04:27:53;;;;;;;11.57;7.70;;;;;;;;;;5137624;27;20098;-74
2023/11/25 04:30:39;;;;;;;9.85;6.75;;;;;;;;;;5138604;27;20109;-74
2023/11/25 04:33:25;;;;;;;12.52;7.53;;;;;;;;;;5137251;27;20436;-74
2023/11/25 04:36:10;;;;;;;10.88;7.28;;;;;;;;;;5137643;27;20453;-74
2023/11/25 04:38:59;;;;;;;12.43;7.88;;;;;;;;;;5122752;27;20026;-74
2023/11/25 04:41:45;;;;;;;12.73;7.88;;;;;;;;;;5137269;27;20034;-74
2023/11/25 04:44:32;;;;;;;11.05;7.80;;;;;;;;;;5137338;27;20439;-74
2023/11/25 04:47:17;;;;;;;14.23;7.90;;;;;;;;;;5138223;27;20451;-74
2023/11/25 04:50:04;;;;;;;13.85;8.55;;;;;;;;;;5123308;27;20019;-75
2023/11/25 04:52:50;;;;;;;13.27;7.97;;;;;;;;;;5122711;27;20035;-69
2023/11/25 04:55:35;;;;;;;12.60;8.55;;;;;;;;;;5138481;27;20114;-69
2023/11/25 04:58:22;;;;;;;12.77;8.32;;;;;;;;;;5136481;27;20027;-70
2023/11/25 05:01:08;;;;;;;14.88;9.32;;;;;;;;;;5136701;27;20023;-70
2023/11/25 05:03:53;;;;;;;17.15;9.85;;;;;;;;;;5136607;27;20431;-70
2023/11/25 05:06:39;;;;;;;14.52;9.52;;;;;;;;;;5137521;27;20374;-70
2023/11/25 05:09:26;;;;;;;14.20;10.13;;;;;;;;;;5136873;27;20015;-69
2023/11/25 05:12:11;;;;;;;18.98;11.02;;;;;;;;;;5122731;27;20054;-69
2023/11/25 05:14:57;;;;;;;18.50;10.43;;;;;;;;;;5136104;27;20020;-69
2023/11/25 05:17:43;;;;;;;18.92;11.30;;;;;;;;;;5137623;27;20030;-70
2023/11/25 05:20:28;;;;;;;17.45;11.27;;;;;;;;;;5137408;27;20022;-70
2023/11/25 05:23:14;;;;;;;20.85;12.05;;;;;;;;;;5136644;27;20031;-70
2023/11/25 05:25:59;;;;;;;18.48;11.05;;;;;;;;;;5136667;27;20529;-68
2023/11/25 05:28:45;;;;;;;18.73;11.73;;;;;;;;;;5138469;27;20453;-69
2023/11/25 05:31:33;;;;;;;20.25;11.38;;;;;;;;;;5121869;27;20034;-69
2023/11/25 05:34:19;;;;;;;16.15;10.45;;;;;;;;;;5137030;27;20019;-69
2023/11/25 05:37:05;;;;;;;18.42;11.48;;;;;;;;;;5136620;27;20019;-69
2023/11/25 05:39:51;;;;;;;19.02;11.60;;;;;;;;;;5121017;27;20061;-69
2023/11/25 05:42:38;;;;;;;18.38;11.50;;;;;;;;;;5135740;27;20015;-69
2023/11/25 05:45:27;;;;;;;17.92;10.00;;;;;;;;;;5136905;27;20011;-69
2023/11/25 05:48:12;;;;;;;16.95;10.88;;;;;;;;;;5122508;27;20015;-69
2023/11/25 05:50:58;;;;;;;16.70;10.38;;;;;;;;;;5135382;27;20489;-69
2023/11/25 05:53:44;;;;;;;17.30;10.13;;;;;;;;;;5136899;27;20038;-70
2023/11/25 05:56:29;;;;;;;14.70;9.50;;;;;;;;;;5137850;27;20023;-69
2023/11/25 05:59:16;;;;;;;15.57;8.70;;;;;;;;;;5136541;27;20343;-69
2023/11/25 06:02:02;;;;;;;14.63;8.60;;;;;;;;;;5136103;27;20027;-70
2023/11/25 06:04:47;;;;;;;12.07;7.82;;;;;;;;;;5135914;27;20106;-69
2023/11/25 06:07:33;;;;;;;11.13;7.22;;;;;;;;;;5136700;27;20019;-69
2023/11/25 06:10:18;;;;;;;9.80;7.03;;;;;;;;;;5136405;27;20421;-70
2023/11/25 06:13:04;;;;;;;10.95;6.28;;;;;;;;;;5135914;27;20026;-71
2023/11/25 06:15:51;;;;;;;9.13;6.03;;;;;;;;;;5136908;27;20080;-70
2023/11/25 06:18:37;;;;;;;10.65;6.32;;;;;;;;;;5134411;27;20420;-70
2023/11/25 06:21:23;;;;;;;8.93;5.88;;;;;;;;;;5135666;27;20516;-70
2023/11/25 06:24:09;;;;;;;7.97;5.38;;;;;;;;;;5135628;27;20031;-71
2023/11/25 06:26:54;;;;;;;9.77;5.32;;;;;;;;;;5121358;27;20050;-69
2023/11/25 06:29:40;;;;;;;8.95;5.55;;;;;;;;;;5134076;27;20030;-69
2023/11/25 06:32:28;;;;;;;9.60;6.13;;;;;;;;;;5136931;27;20292;-70
2023/11/25 06:35:13;;;;;;;9.45;5.57;;;;;;;;;;5136143;27;20030;-70
2023/11/25 06:37:59;;;;;;;10.43;5.97;;;;;;;;;;5136604;27;20122;-70
2023/11/25 06:40:45;;;;;;;7.15;5.00;;;;;;;;;;5135729;27;20023;-70
2023/11/25 06:43:31;;;;;;;10.73;6.15;;;;;;;;;;5136159;27;20026;-69
2023/11/25 06:46:16;;;;;;;11.50;5.95;;;;;;;;;;5136543;27;20468;-71
2023/11/25 06:49:02;;;;;;;11.65;6.07;;;;;;;;;;5120244;27;20031;-70
2023/11/25 06:51:48;;;;;;;12.60;5.72;;;;;;;;;;5134698;27;20047;-69
2023/11/25 06:54:34;;;;;;;15.13;6.05;;;;;;;;;;5135558;27;20038;-69
2023/11/25 06:57:20;;;;;;;13.75;6.57;;;;;;;;;;5136022;27;20019;-69
2023/11/25 07:00:08;;;;;;;14.55;7.22;;;;;;;;;;5136049;27;20035;-69
2023/11/25 07:02:54;;;;;;;13.45;7.32;;;;;;;;;;5136523;27;20038;-74
2023/11/25 07:05:40;;;;;;;10.88;6.75;;;;;;;;;;5120473;27;20015;-75
2023/11/25 07:08:25;;;;;;;8.73;5.82;;;;;;;;;;5134696;27;20023;-76
2023/11/25 07:11:13;;;;;;;6.60;4.45;;;;;;;;;;5134401;27;20023;-74
2023/11/25 07:13:59;;;;;;;7.70;4.20;;;;;;;;;;5121064;27;20151;-76
2023/11/25 07:16:45;;;;;;;4.68;2.97;;;;;;;;;;5135001;27;20084;-75
2023/11/25 07:19:30;;;;;;;4.47;2.75;;;;;;;;;;5136248;27;20203;-75
2023/11/25 07:22:16;;;;;;;3.10;2.00;;;;;;;;;;5119932;27;20435;-75
2023/11/25 07:25:02;;;;;;;3.60;2.30;;;;;;;;;;5119864;27;20076;-75
2023/11/25 07:27:47;;;;;;;3.03;2.03;;;;;;;;;;5120503;27;20350;-69
2023/11/25 07:30:33;;;;;;;3.17;2.00;;;;;;;;;;5135522;27;20038;-74
2023/11/25 07:33:18;;;;;;;6.03;2.47;;;;;;;;;;5134904;27;20023;-75
2023/11/25 07:36:06;;;;;;;4.90;2.00;;;;;;;;;;5134662;27;20475;-70
2023/11/25 07:38:51;;;;;;;3.97;2.30;;;;;;;;;;5135083;27;20447;-70
2023/11/25 07:41:39;;;;;;;4.75;2.47;;;;;;;;;;5119790;27;20031;-69
2023/11/25 07:44:30;;;;;;;4.45;2.60;;;;;;;;;;5134892;27;20110;-75
2023/11/25 07:47:16;;;;;;;4.15;2.53;;;;;;;;;;5134862;28;20023;-74
2023/11/25 07:50:01;;;;;;;4.32;3.00;;;;;;;;;;5135086;27;20026;-74
2023/11/25 07:52:47;;;;;;;6.00;2.50;;;;;;;;;;5120237;27;20057;-74
2023/11/25 07:55:33;;;;;;;5.60;2.38;;;;;;;;;;5123620;27;20019;-74
2023/11/25 07:58:19;;;;;;;4.05;2.10;;;;;;;;;;5124406;27;20102;-74
2023/11/25 08:01:05;;;;;;;4.30;2.20;;;;;;;;;;5139043;27;20035;-74
2023/11/25 08:03:52;;;;;;;4.57;1.77;;;;;;;;;;5140952;27;20204;-74
2023/11/25 08:06:37;;;;;;;2.92;1.65;;;;;;;;;;5137572;27;20029;-75
2023/11/25 08:09:23;;;;;;;3.83;1.60;;;;;;;;;;5124068;27;20156;-74
2023/11/25 08:12:09;;;;;;;2.90;1.23;;;;;;;;;;5139058;27;20030;-74
2023/11/25 08:14:55;;;;;;;1.80;1.30;;;;;;;;;;5124177;27;20019;-74
2023/11/25 08:17:42;;;;;;;2.75;1.55;;;;;;;;;;5139454;27;20031;-74
2023/11/25 08:20:27;;;;;;;3.28;1.98;;;;;;;;;;5139521;27;20354;-74
2023/11/25 08:23:15;;;;;;;4.80;1.70;;;;;;;;;;5139753;27;20090;-74
2023/11/25 08:26:00;;;;;;;3.00;1.70;;;;;;;;;;5123182;27;20084;-74
2023/11/25 08:28:47;;;;;;;3.80;1.90;;;;;;;;;;5138665;27;20023;-74
2023/11/25 08:31:33;;;;;;;3.55;1.25;;;;;;;;;;5138232;27;20037;-75
2023/11/25 08:34:18;;;;;;;3.47;2.35;;;;;;;;;;5138506;27;20027;-70
2023/11/25 08:37:05;;;;;;;3.25;1.70;;;;;;;;;;5123374;27;20023;-71
2023/11/25 08:39:51;;;;;;;3.10;2.20;;;;;;;;;;5137983;27;20023;-70
2023/11/25 08:42:37;;;;;;;4.70;2.50;;;;;;;;;;5138803;27;20077;-71
2023/11/25 08:45:24;;;;;;;4.72;1.98;;;;;;;;;;5138645;27;20080;-71
2023/11/25 08:48:10;;;;;;;3.78;1.80;;;;;;;;;;5138662;27;20019;-71
2023/11/25 08:50:56;;;;;;;5.22;2.20;;;;;;;;;;5122296;27;20060;-70
2023/11/25 08:53:49;;;;;;;2.15;1.60;;;;;;;;;;5122291;27;20027;-70
2023/11/25 08:56:36;;;;;;;2.00;1.20;;;;;;;;;;5137513;27;20439;-70
2023/11/25 08:59:22;;;;;;;2.75;1.80;;;;;;;;;;5122629;27;20034;-70
2023/11/25 09:02:12;;;;;;;2.00;1.20;;;;;;;;;;5123752;27;20038;-69
2023/11/25 09:04:58;;;;;;;1.13;1.00;;;;;;;;;;5135904;27;20019;-71
2023/11/25 09:07:44;;;;;;;0.90;0.80;;;;;;;;;;5137274;27;20019;-70
2023/11/25 09:10:31;;;;;;;2.22;1.17;;;;;;;;;;5136511;27;20463;-70
2023/11/25 09:13:16;;;;;;;3.72;1.30;;;;;;;;;;5138120;27;20033;-70
2023/11/25 09:16:03;;;;;;;2.28;1.30;;;;;;;;;;5137507;27;20019;-70
2023/11/25 09:18:49;;;;;;;2.30;1.38;;;;;;;;;;5136385;27;20027;-70
2023/11/25 09:21:35;;;;;;;4.72;1.63;;;;;;;;;;5137171;27;20461;-70
2023/11/25 09:24:21;;;;;;;2.50;1.50;;;;;;;;;;5123194;27;20114;-70
2023/11/25 09:27:06;;;;;;;3.42;1.85;;;;;;;;;;5138291;27;20061;-70
2023/11/25 09:29:52;;;;;;;3.53;1.58;;;;;;;;;;5136289;27;20027;-70
2023/11/25 09:32:41;;;;;;;4.03;1.17;;;;;;;;;;5136633;27;20027;-69
2023/11/25 09:35:27;;;;;;;2.53;1.33;;;;;;;;;;5121547;27;20313;-70
2023/11/25 09:38:13;;;;;;;3.53;1.55;;;;;;;;;;5137511;27;20030;-69
2023/11/25 09:40:58;;;;;;;2.50;1.30;;;;;;;;;;5121370;27;20015;-70
2023/11/25 09:43:45;;;;;;;1.98;1.10;;;;;;;;;;5122001;27;20108;-70
2023/11/25 09:46:30;;;;;;;4.88;1.70;;;;;;;;;;5123158;27;20027;-71
2023/11/25 09:49:16;;;;;;;170.95;14.82;;;;;;;;;;5114563;27;21030;-71
2023/11/25 09:52:05;;;;;;;67.05;8.48;;;;;;;;;;5131111;27;20049;-72
2023/11/25 09:54:54;;;;;;;36.95;5.72;;;;;;;;;;5136889;27;20030;-70
2023/11/25 09:57:41;;;;;;;3.25;1.80;;;;;;;;;;5135335;27;20047;-70
2023/11/25 10:00:27;;;;;;;9.88;2.13;;;;;;;;;;5136445;27;20106;-70
2023/11/25 10:03:14;;;;;;;38.05;4.35;;;;;;;;;;5135821;27;20027;-70
2023/11/25 10:06:01;;;;;;;8.55;2.40;;;;;;;;;;5134666;27;20054;-70
2023/11/25 10:08:46;;;;;;;3.90;2.17;;;;;;;;;;5133685;27;20023;-69
2023/11/25 10:11:32;;;;;;;5.85;2.00;;;;;;;;;;5135974;27;20064;-69
2023/11/25 10:14:18;;;;;;;3.60;2.20;;;;;;;;;;5121981;27;20035;-69
2023/11/25 10:17:17;;;;;;;4.10;2.40;;;;;;;;;;5134906;27;20094;-69
2023/11/25 10:20:05;;;;;;;3.85;2.50;;;;;;;;;;5136042;27;20031;-69
2023/11/25 10:22:58;;;;;;;12.25;3.72;;;;;;;;;;5121835;27;20052;-69
2023/11/25 10:25:44;;;;;;;8.20;4.07;;;;;;;;;;5135213;27;20019;-70
2023/11/25 10:28:33;;;;;;;5.43;3.38;;;;;;;;;;5136407;27;20030;-69
2023/11/25 10:31:18;;;;;;;13.88;4.80;;;;;;;;;;5135738;27;20123;-70
2023/11/25 10:34:04;;;;;;;9.13;4.63;;;;;;;;;;5135792;27;20027;-70
2023/11/25 10:36:52;;;;;;;7.07;4.15;;;;;;;;;;5135101;27;20019;-70
2023/11/25 10:39:38;;;;;;;8.55;4.10;;;;;;;;;;5135134;27;20359;-74
2023/11/25 10:42:26;;;;;;;9.13;4.90;;;;;;;;;;5121284;27;20019;-73
2023/11/25 10:45:15;;;;;;;27.52;7.03;;;;;;;;;;5117702;27;20047;-73
2023/11/25 10:48:02;;;;;;;36.10;6.80;;;;;;;;;;5116308;28;20016;-74
2023/11/25 10:50:48;;;;;;;51.38;11.32;;;;;;;;;;5114824;28;20042;-73
2023/11/25 10:53:36;;;;;;;21.33;6.38;;;;;;;;;;5115198;28;20389;-72
2023/11/25 10:56:23;;;;;;;14.30;4.53;;;;;;;;;;5114398;28;20098;-69
2023/11/25 10:59:12;;;;;;;8.30;4.68;;;;;;;;;;5114031;28;20024;-70
2023/11/25 11:01:59;;;;;;;8.18;5.57;;;;;;;;;;5114913;28;20435;-70
2023/11/25 11:04:52;;;;;;;7.97;4.63;;;;;;;;;;5114070;28;20023;-67
2023/11/25 11:07:49;;;;;;;10.40;4.63;;;;;;;;;;5114310;28;20008;-67
2023/11/25 11:10:39;;;;;;;7.00;4.07;;;;;;;;;;5114070;28;20019;-68
2023/11/25 11:13:36;;;;;;;9.60;5.72;;;;;;;;;;5114922;28;20174;-67
2023/11/25 11:16:21;;;;;;;11.25;6.50;;;;;;;;;;5114799;28;20033;-69
2023/11/25 11:19:07;;;;;;;13.02;6.45;;;;;;;;;;5113464;28;20042;-70
2023/11/25 11:21:55;;;;;;;9.15;5.43;;;;;;;;;;5114497;28;20394;-69
2023/11/25 11:24:46;;;;;;;23.50;6.90;;;;;;;;;;5114892;28;20015;-69
2023/11/25 11:27:44;;;;;;;10.13;6.45;;;;;;;;;;5113360;28;20016;-69
2023/11/25 11:30:49;;;;;;;9.88;5.20;;;;;;;;;;5114645;28;20366;-69
2023/11/25 11:33:35;;;;;;;10.25;6.07;;;;;;;;;;5113869;28;20027;-69
2023/11/25 11:36:30;;;;;;;7.85;5.75;;;;;;;;;;5114579;28;20042;-70
2023/11/25 11:39:32;;;;;;;6.78;4.75;;;;;;;;;;5113147;28;20321;-70
2023/11/25 11:42:22;;;;;;;9.13;5.60;;;;;;;;;;5113502;28;20114;-70
2023/11/25 11:45:15;;;;;;;9.02;5.57;;;;;;;;;;5114350;28;20023;-70
2023/11/25 11:48:03;;;;;;;9.02;5.80;;;;;;;;;;5113763;28;20035;-70
2023/11/25 11:50:50;;;;;;;10.07;6.00;;;;;;;;;;5123045;27;20460;-70
2023/11/25 11:53:36;;;;;;;9.27;5.57;;;;;;;;;;5120571;28;20030;-73
2023/11/25 11:56:21;;;;;;;9.70;5.50;;;;;;;;;;5134431;28;20021;-72
2023/11/25 11:59:07;;;;;;;12.60;6.03;;;;;;;;;;5120397;28;20026;-73
2023/11/25 12:01:52;;;;;;;11.60;5.60;;;;;;;;;;5120261;28;20015;-72
2023/11/25 12:04:38;;;;;;;9.55;6.20;;;;;;;;;;5120629;28;20037;-74
2023/11/25 12:07:24;;;;;;;9.27;5.53;;;;;;;;;;5134365;28;20035;-74
2023/11/25 12:10:10;;;;;;;10.38;5.63;;;;;;;;;;5135309;28;20015;-76
2023/11/25 12:12:55;;;;;;;8.05;5.70;;;;;;;;;;5121013;28;20168;-74
2023/11/25 12:15:41;;;;;;;6.60;4.72;;;;;;;;;;5135051;28;20023;-75
2023/11/25 12:18:27;;;;;;;7.00;4.65;;;;;;;;;;5135044;28;20110;-73
2023/11/25 12:21:13;;;;;;;7.47;5.45;;;;;;;;;;5119104;28;20023;-72
2023/11/25 12:23:59;;;;;;;7.78;4.47;;;;;;;;;;5135644;28;20015;-73
2023/11/25 12:26:49;;;;;;;6.30;4.47;;;;;;;;;;5120315;28;20425;-73
2023/11/25 12:29:35;;;;;;;7.55;4.50;;;;;;;;;;5134470;28;20015;-73
2023/11/25 12:32:21;;;;;;;9.10;4.63;;;;;;;;;;5119085;28;20037;-71
2023/11/25 12:35:11;;;;;;;8.45;4.18;;;;;;;;;;5119968;28;20019;-73
2023/11/25 12:37:56;;;;;;;6.85;4.47;;;;;;;;;;5137064;28;20031;-71
2023/11/25 12:40:44;;;;;;;7.22;5.07;;;;;;;;;;5141326;27;20474;-73
2023/11/25 12:43:30;;;;;;;6.88;4.88;;;;;;;;;;5148167;27;20015;-71
2023/11/25 12:46:18;;;;;;;9.70;5.72;;;;;;;;;;5150062;27;20043;-71
2023/11/25 12:49:19;;;;;;;9.50;6.00;;;;;;;;;;5147336;27;20094;-72
2023/11/25 12:52:05;;;;;;;9.68;6.25;;;;;;;;;;5136797;27;20077;-73
2023/11/25 12:54:52;;;;;;;11.25;6.57;;;;;;;;;;5137792;27;20445;-71
2023/11/25 12:57:38;;;;;;;9.75;7.07;;;;;;;;;;5137741;27;20024;-71
2023/11/25 13:00:23;;;;;;;9.27;6.38;;;;;;;;;;5150113;27;20023;-71
2023/11/25 13:03:10;;;;;;;12.27;7.25;;;;;;;;;;5136200;27;20015;-72
2023/11/25 13:06:11;;;;;;;9.48;6.88;;;;;;;;;;5125442;27;20355;-68
2023/11/25 13:08:57;;;;;;;9.40;6.68;;;;;;;;;;5141513;27;20019;-72
2023/11/25 13:11:43;;;;;;;12.27;7.05;;;;;;;;;;5140737;27;20098;-73
2023/11/25 13:14:30;;;;;;;12.98;8.07;;;;;;;;;;5137926;27;20171;-72
2023/11/25 13:17:16;;;;;;;11.70;7.50;;;;;;;;;;5137528;27;20041;-73
2023/11/25 13:20:03;;;;;;;10.88;6.97;;;;;;;;;;5137707;27;20023;-73
2023/11/25 13:22:49;;;;;;;13.32;8.13;;;;;;;;;;5137377;27;20443;-73
2023/11/25 13:25:35;;;;;;;12.27;8.07;;;;;;;;;;5122895;27;20047;-70
2023/11/25 13:28:21;;;;;;;12.10;7.93;;;;;;;;;;5136605;27;20054;-69
2023/11/25 13:31:06;;;;;;;12.90;8.70;;;;;;;;;;5137413;27;20423;-70
2023/11/25 13:33:52;;;;;;;15.75;9.23;;;;;;;;;;5136967;27;20019;-73
2023/11/25 13:36:38;;;;;;;14.52;9.43;;;;;;;;;;5137118;27;20022;-70
2023/11/25 13:39:24;;;;;;;13.73;9.48;;;;;;;;;;5137234;27;20033;-72
2023/11/25 13:42:09;;;;;;;13.68;9.05;;;;;;;;;;5137497;27;20357;-71
2023/11/25 13:44:55;;;;;;;13.35;8.90;;;;;;;;;;5137093;27;20034;-71
2023/11/25 13:47:42;;;;;;;13.73;9.02;;;;;;;;;;5122621;27;20046;-74
2023/11/25 13:50:27;;;;;;;14.75;10.00;;;;;;;;;;5137175;27;20031;-73
2023/11/25 13:53:13;;;;;;;14.55;9.80;;;;;;;;;;5137045;27;20458;-72
2023/11/25 13:55:59;;;;;;;13.07;8.65;;;;;;;;;;5137281;27;20035;-73
2023/11/25 13:58:45;;;;;;;12.07;8.38;;;;;;;;;;5137128;27;20019;-69
2023/11/25 14:01:30;;;;;;;42.83;28.77;;;;;;;;;;5122747;27;20037;-69
2023/11/25 14:04:16;;;;;;;15.55;10.68;;;;;;;;;;5121670;27;20156;-72
2023/11/25 14:07:01;;;;;;;14.48;9.05;;;;;;;;;;5137236;27;20449;-75
2023/11/25 14:09:47;;;;;;;14.70;9.68;;;;;;;;;;5137175;27;20419;-73
2023/11/25 14:12:33;;;;;;;15.48;9.63;;;;;;;;;;5137189;27;20450;-73
2023/11/25 14:15:18;;;;;;;15.55;9.55;;;;;;;;;;5136646;27;20027;-71
2023/11/25 14:18:07;;;;;;;16.05;10.57;;;;;;;;;;5137556;27;20033;-69
2023/11/25 14:20:53;;;;;;;15.82;10.43;;;;;;;;;;5137209;27;20466;-69
2023/11/25 14:23:38;;;;;;;15.65;11.00;;;;;;;;;;5136870;27;20473;-70
2023/11/25 14:26:25;;;;;;;17.45;10.20;;;;;;;;;;5136502;27;20479;-70
2023/11/25 14:29:12;;;;;;;16.17;9.90;;;;;;;;;;5136154;27;20020;-69
2023/11/25 14:31:58;;;;;;;14.60;9.88;;;;;;;;;;5121353;27;20429;-72
2023/11/25 14:34:43;;;;;;;13.30;9.20;;;;;;;;;;5120719;27;20431;-72
2023/11/25 14:37:29;;;;;;;18.70;13.40;;;;;;;;;;5134202;27;20008;-73
2023/11/25 14:40:16;;;;;;;14.63;10.25;;;;;;;;;;5135673;27;20102;-73
2023/11/25 14:43:04;;;;;;;18.55;10.98;;;;;;;;;;5120458;27;20020;-73
2023/11/25 14:45:50;;;;;;;19.23;10.77;;;;;;;;;;5134947;27;20023;-72
2023/11/25 14:48:36;;;;;;;19.80;11.63;;;;;;;;;;5121513;27;20022;-70
2023/11/25 14:51:22;;;;;;;18.63;11.88;;;;;;;;;;5134375;27;20046;-73
2023/11/25 14:54:07;;;;;;;18.42;11.27;;;;;;;;;;5126795;27;20024;-70
2023/11/25 14:56:53;;;;;;;17.50;10.75;;;;;;;;;;5115394;28;20027;-67
2023/11/25 14:59:39;;;;;;;17.08;10.88;;;;;;;;;;5115148;28;20142;-67
2023/11/25 15:02:25;;;;;;;19.35;11.70;;;;;;;;;;5114550;28;20028;-68
2023/11/25 15:05:10;;;;;;;18.27;11.52;;;;;;;;;;5099385;28;20076;-68
2023/11/25 15:07:56;;;;;;;18.27;11.43;;;;;;;;;;5114006;28;20055;-68
2023/11/25 15:10:43;;;;;;;18.70;11.73;;;;;;;;;;5114669;28;20332;-67
2023/11/25 15:13:29;;;;;;;18.73;11.90;;;;;;;;;;5099897;28;20089;-69
2023/11/25 15:16:15;;;;;;;24.63;15.07;;;;;;;;;;5114676;28;20028;-68
2023/11/25 15:19:00;;;;;;;19.45;12.30;;;;;;;;;;5114700;28;20356;-70
2023/11/25 15:21:46;;;;;;;20.45;12.38;;;;;;;;;;5115562;28;20076;-69
2023/11/25 15:24:33;;;;;;;20.42;12.15;;;;;;;;;;5115247;28;20026;-69
2023/11/25 15:27:18;;;;;;;24.88;13.88;;;;;;;;;;5114821;28;20047;-69
2023/11/25 15:30:10;;;;;;;19.88;11.70;;;;;;;;;;5117862;27;20351;-69
2023/11/25 15:32:56;;;;;;;16.75;11.05;;;;;;;;;;5119149;27;20038;-69
2023/11/25 15:35:42;;;;;;;21.63;12.93;;;;;;;;;;5119939;27;20023;-68
2023/11/25 15:38:28;;;;;;;21.80;13.50;;;;;;;;;;5133731;27;20439;-70
2023/11/25 15:41:13;;;;;;;21.75;13.10;;;;;;;;;;5133978;27;20081;-68
2023/11/25 15:43:59;;;;;;;28.13;17.30;;;;;;;;;;5133794;27;20053;-68
2023/11/25 15:46:45;;;;;;;26.48;15.55;;;;;;;;;;5133639;27;20015;-69
2023/11/25 15:49:30;;;;;;;19.67;13.05;;;;;;;;;;5134160;27;20115;-67
2023/11/25 15:52:16;;;;;;;20.77;14.02;;;;;;;;;;5133848;27;20063;-71
2023/11/25 15:55:02;;;;;;;24.73;14.35;;;;;;;;;;5134155;28;20456;-70
2023/11/25 15:57:47;;;;;;;23.35;13.68;;;;;;;;;;5134283;28;20028;-69
2023/11/25 16:00:33;;;;;;;20.00;12.95;;;;;;;;;;5132759;28;20059;-71
2023/11/25 16:03:18;;;;;;;24.45;14.40;;;;;;;;;;5134137;28;20026;-72
2023/11/25 16:06:04;;;;;;;26.77;16.90;;;;;;;;;;5118500;28;20046;-67
2023/11/25 16:08:50;;;;;;;27.60;16.98;;;;;;;;;;5119116;28;20089;-70
2023/11/25 16:11:36;;;;;;;39.55;23.23;;;;;;;;;;5134355;28;20111;-69
2023/11/25 16:14:22;;;;;;;25.52;15.40;;;;;;;;;;5134278;27;20022;-69
2023/11/25 16:17:08;;;;;;;48.67;31.08;;;;;;;;;;5123595;27;20084;-71
2023/11/25 16:19:53;;;;;;;28.70;17.90;;;;;;;;;;5138004;27;20083;-71
2023/11/25 16:22:39;;;;;;;31.55;18.17;;;;;;;;;;5138064;27;20443;-71
2023/11/25 16:25:24;;;;;;;31.90;18.17;;;;;;;;;;5138188;27;20101;-72